METAR Data
IDs: Format: Raw Decoded Include TAF

Data at: 1554 UTC 04 Aug 2021

EGWU 041520Z 29006KT CAVOK 21/10 Q1012 NOSIG RMK BLU BLU